Time;durP1;ratioP1;P1;durP2;ratioP2;P2;SDS_P1;SDS_P2;PMS_P1;PMS_P2;Temp;Humidity;BMP_temperature;BMP_pressure;BME280_temperature;BME280_humidity;BME280_pressure;Samples;Min_cycle;Max_cycle;Signal;HPM_P1;HPM_P2
2023/05/24 00:00:40;;;;;;;0.20;0.20;;;;;;;10.93;nan;100990.72;4990483;28;20042;-84
2023/05/24 00:03:06;;;;;;;0.30;0.30;;;;;;;10.87;nan;100993.09;4979435;28;20049;-84
2023/05/24 00:05:31;;;;;;;0.10;0.10;;;;;;;10.82;nan;100985.59;4989881;28;20694;-84
2023/05/24 00:07:58;;;;;;;0.20;0.20;;;;;;;10.76;nan;100979.06;4987904;28;21079;-85
2023/05/24 00:10:23;;;;;;;0.20;0.20;;;;;;;10.70;nan;100976.13;4999300;28;20044;-85
2023/05/24 00:12:49;;;;;;;0.20;0.20;;;;;;;10.60;nan;100974.34;4988515;28;20035;-85
2023/05/24 00:15:15;;;;;;;0.20;0.20;;;;;;;10.53;nan;100981.16;4976787;28;20177;-85
2023/05/24 00:17:41;;;;;;;0.17;0.17;;;;;;;10.48;nan;100972.81;4981091;28;20034;-84
2023/05/24 00:20:10;;;;;;;0.20;0.20;;;;;;;10.46;nan;100969.47;4990528;28;20042;-84
2023/05/24 00:22:37;;;;;;;0.20;0.20;;;;;;;10.43;nan;100974.22;4975129;28;20031;-84
2023/05/24 00:25:02;;;;;;;0.20;0.20;;;;;;;10.39;nan;100963.09;4972928;28;20736;-83
2023/05/24 00:27:27;;;;;;;0.20;0.20;;;;;;;10.38;nan;100969.34;4969739;28;20031;-85
2023/05/24 00:29:53;;;;;;;0.20;0.20;;;;;;;10.39;nan;100971.88;4969718;28;20035;-84
2023/05/24 00:32:18;;;;;;;0.28;0.28;;;;;;;10.40;nan;100970.88;4967334;28;20134;-84
2023/05/24 00:34:43;;;;;;;0.20;0.20;;;;;;;10.41;nan;100969.91;4971851;28;20547;-85
2023/05/24 00:37:09;;;;;;;0.20;0.20;;;;;;;10.41;nan;100969.91;4987998;28;20030;-85
2023/05/24 00:39:34;;;;;;;0.20;0.20;;;;;;;10.38;nan;100964.91;4998117;28;20030;-85
2023/05/24 00:41:59;;;;;;;0.20;0.20;;;;;;;10.36;nan;100963.38;4978978;28;20282;-85
2023/05/24 00:44:24;;;;;;;0.20;0.20;;;;;;;10.40;nan;100962.97;4990136;28;20659;-86
2023/05/24 00:46:50;;;;;;;0.20;0.20;;;;;;;10.42;nan;100954.91;4980086;28;20043;-85
2023/05/24 00:49:16;;;;;;;0.30;0.30;;;;;;;10.42;nan;100954.91;5000720;28;20034;-84
2023/05/24 00:51:41;;;;;;;0.20;0.20;;;;;;;10.41;nan;100951.41;5000952;28;20026;-84
2023/05/24 00:54:06;;;;;;;0.20;0.20;;;;;;;10.37;nan;100949.19;4987756;28;20121;-84
2023/05/24 00:56:32;;;;;;;0.30;0.30;;;;;;;10.31;nan;100944.47;4987093;28;20038;-84
2023/05/24 00:58:57;;;;;;;0.20;0.20;;;;;;;10.27;nan;100941.22;4973796;28;20031;-84
2023/05/24 01:01:29;;;;;;;0.20;0.20;;;;;;;10.27;nan;100941.22;4986151;28;20062;-85
2023/05/24 01:03:56;;;;;;;0.30;0.30;;;;;;;10.26;nan;100946.66;4987825;28;20034;-85
2023/05/24 01:06:23;;;;;;;0.30;0.30;;;;;;;10.28;nan;100945.56;4986753;28;20098;-85
2023/05/24 01:09:25;;;;;;;0.20;0.20;;;;;;;10.25;nan;100952.91;4976830;28;20045;-85
2023/05/24 01:12:18;;;;;;;0.20;0.20;;;;;;;10.19;nan;100947.19;4978462;28;20035;-86
2023/05/24 01:14:57;;;;;;;0.20;0.20;;;;;;;10.18;nan;100950.00;5052955;28;20079;-86
2023/05/24 01:17:30;;;;;;;0.20;0.20;;;;;;;10.18;nan;100950.81;5052032;28;20041;-85
2023/05/24 01:20:00;;;;;;;0.30;0.30;;;;;;;10.18;nan;100952.66;5051780;28;20049;-85
2023/05/24 01:23:04;;;;;;;0.30;0.30;;;;;;;10.20;nan;100950.66;5052192;28;20127;-86
2023/05/24 01:25:47;;;;;;;0.30;0.30;;;;;;;10.24;nan;100952.06;5058829;28;20028;-85
2023/05/24 01:28:17;;;;;;;0.20;0.20;;;;;;;10.30;nan;100950.72;5069266;28;20033;-85
2023/05/24 01:30:44;;;;;;;0.20;0.20;;;;;;;10.33;nan;100948.63;5069676;28;20052;-85
2023/05/24 01:33:09;;;;;;;0.20;0.20;;;;;;;10.37;nan;100941.25;5069916;28;20442;-85
2023/05/24 01:35:39;;;;;;;0.20;0.20;;;;;;;10.36;nan;100953.63;5070951;28;20063;-86
2023/05/24 01:38:05;;;;;;;0.30;0.30;;;;;;;10.37;nan;100952.66;5069129;28;20035;-84
2023/05/24 01:40:31;;;;;;;0.20;0.20;;;;;;;10.36;nan;100958.91;5070070;28;20062;-85
2023/05/24 01:43:16;;;;;;;0.20;0.20;;;;;;;10.36;nan;100958.09;5070022;28;20024;-84
2023/05/24 01:45:52;;;;;;;0.30;0.30;;;;;;;10.34;nan;100955.56;5069907;28;20032;-87
2023/05/24 01:48:32;;;;;;;0.20;0.20;;;;;;;10.36;nan;100969.50;5073275;28;20111;-86
2023/05/24 01:51:00;;;;;;;0.25;0.25;;;;;;;10.37;nan;100971.19;5091544;28;20386;-86
2023/05/24 01:53:31;;;;;;;0.22;0.22;;;;;;;10.40;nan;100976.16;5069763;28;20033;-85
2023/05/24 01:56:01;;;;;;;0.20;0.20;;;;;;;10.38;nan;100974.66;5068920;28;20040;-85
2023/05/24 01:58:28;;;;;;;0.22;0.22;;;;;;;10.38;nan;100972.81;5069548;28;20115;-86
2023/05/24 02:00:54;;;;;;;0.30;0.30;;;;;;;10.39;nan;100969.22;5069524;28;20501;-86
2023/05/24 02:03:20;;;;;;;0.20;0.20;;;;;;;10.40;nan;100975.34;5069815;28;20050;-85
2023/05/24 02:05:45;;;;;;;0.20;0.20;;;;;;;10.41;nan;100972.53;5062769;28;20094;-85
2023/05/24 02:08:11;;;;;;;0.20;0.20;;;;;;;10.44;nan;100971.47;5051490;28;20059;-85
2023/05/24 02:10:38;;;;;;;0.20;0.20;;;;;;;10.50;nan;100968.22;5072651;28;20055;-85
2023/05/24 02:13:03;;;;;;;0.20;0.20;;;;;;;10.53;nan;100967.94;5069769;28;20032;-84
2023/05/24 02:15:29;;;;;;;0.20;0.20;;;;;;;10.53;nan;100970.59;5054385;28;20485;-84
2023/05/24 02:17:54;;;;;;;0.20;0.20;;;;;;;10.55;nan;100965.16;5071837;28;20033;-83
2023/05/24 02:20:21;;;;;;;0.30;0.30;;;;;;;10.59;nan;100972.69;5055660;28;20033;-84
2023/05/24 02:22:47;;;;;;;0.20;0.20;;;;;;;10.56;nan;100972.97;5071129;28;20293;-85
2023/05/24 02:25:12;;;;;;;0.20;0.20;;;;;;;10.57;nan;100963.22;5070307;28;20033;-85
2023/05/24 02:27:37;;;;;;;0.20;0.20;;;;;;;10.55;nan;100970.47;5060429;28;20051;-85
2023/05/24 02:30:04;;;;;;;0.20;0.20;;;;;;;10.57;nan;100971.16;5054327;28;20128;-85
2023/05/24 02:32:30;;;;;;;0.20;0.20;;;;;;;10.59;nan;100977.16;5053579;28;20041;-86
2023/05/24 02:34:58;;;;;;;0.22;0.22;;;;;;;10.57;nan;100979.91;5054808;28;20094;-86
2023/05/24 02:37:23;;;;;;;0.20;0.20;;;;;;;10.57;nan;100982.56;5058254;28;20045;-85
2023/05/24 02:39:48;;;;;;;0.20;0.20;;;;;;;10.58;nan;100976.31;5063255;28;20091;-85
2023/05/24 02:42:13;;;;;;;0.20;0.20;;;;;;;10.66;nan;100978.25;5053504;28;20252;-85
2023/05/24 02:44:39;;;;;;;0.20;0.20;;;;;;;10.69;nan;100972.66;5064293;28;20328;-85
2023/05/24 02:47:04;;;;;;;0.20;0.20;;;;;;;10.70;nan;100969.06;5056487;28;20030;-86
2023/05/24 02:49:30;;;;;;;0.20;0.20;;;;;;;10.74;nan;100969.59;5075466;28;20032;-86
2023/05/24 02:51:55;;;;;;;0.20;0.20;;;;;;;10.75;nan;100969.47;5085930;28;20068;-85
2023/05/24 02:54:20;;;;;;;0.20;0.20;;;;;;;10.75;nan;100966.81;5058214;28;20032;-85
2023/05/24 02:56:46;;;;;;;0.22;0.22;;;;;;;10.84;nan;100971.25;5040146;28;20266;-85
2023/05/24 02:59:11;;;;;;;0.20;0.20;;;;;;;10.85;nan;100964.16;5014652;28;20032;-85
2023/05/24 03:01:37;;;;;;;0.20;0.20;;;;;;;10.87;nan;100971.94;5058588;28;20056;-85
2023/05/24 03:04:02;;;;;;;0.25;0.25;;;;;;;10.87;nan;100969.28;5049438;28;20876;-87
2023/05/24 03:06:27;;;;;;;0.20;0.20;;;;;;;10.80;nan;100969.03;5069675;28;20037;-85
2023/05/24 03:08:53;;;;;;;0.22;0.22;;;;;;;10.76;nan;100978.22;5069203;28;20033;-85
2023/05/24 03:11:20;;;;;;;0.20;0.20;;;;;;;10.73;nan;100984.66;5070039;28;20059;-85
2023/05/24 03:13:47;;;;;;;0.20;0.20;;;;;;;10.78;nan;100985.06;5070119;28;20043;-85
2023/05/24 03:16:12;;;;;;;0.22;0.22;;;;;;;10.75;nan;100976.53;5064275;28;20033;-84
2023/05/24 03:18:37;;;;;;;0.10;0.10;;;;;;;10.70;nan;100977.00;5068257;28;20036;-85
2023/05/24 03:21:02;;;;;;;0.20;0.20;;;;;;;10.70;nan;100982.28;5069549;28;20466;-85
2023/05/24 03:23:28;;;;;;;0.30;0.30;;;;;;;10.69;nan;100975.31;5062964;28;20311;-84
2023/05/24 03:25:53;;;;;;;0.20;0.20;;;;;;;10.71;nan;100983.13;5054704;28;20035;-85
2023/05/24 03:28:21;;;;;;;0.20;0.20;;;;;;;10.67;nan;100985.19;5075138;28;20043;-84
2023/05/24 03:30:46;;;;;;;0.20;0.20;;;;;;;10.61;nan;100980.50;5078221;28;20041;-85
2023/05/24 03:33:11;;;;;;;0.20;0.20;;;;;;;10.62;nan;100982.13;5064955;28;20403;-84
2023/05/24 03:35:37;;;;;;;0.20;0.20;;;;;;;10.56;nan;100990.66;5073198;28;20032;-84
2023/05/24 03:38:02;;;;;;;0.30;0.30;;;;;;;10.58;nan;100986.03;5013146;28;20037;-84
2023/05/24 03:40:31;;;;;;;0.30;0.30;;;;;;;10.60;nan;100978.81;4998544;28;20049;-84
2023/05/24 03:42:56;;;;;;;0.30;0.30;;;;;;;10.49;nan;100978.97;5001167;28;20034;-84
2023/05/24 03:45:21;;;;;;;0.20;0.20;;;;;;;10.50;nan;100989.38;5001040;28;20049;-84
2023/05/24 03:47:46;;;;;;;0.20;0.20;;;;;;;10.50;nan;100980.63;5059169;28;20033;-87
2023/05/24 03:50:13;;;;;;;0.30;0.30;;;;;;;10.55;nan;100981.03;5084011;28;20036;-86
2023/05/24 03:52:38;;;;;;;0.28;0.28;;;;;;;10.62;nan;100980.31;5074126;28;20036;-86
2023/05/24 03:55:04;;;;;;;0.20;0.20;;;;;;;10.66;nan;100980.06;5078236;28;20032;-86
2023/05/24 03:57:29;;;;;;;0.30;0.30;;;;;;;10.65;nan;100981.84;5078823;28;20056;-86
2023/05/24 03:59:55;;;;;;;0.20;0.20;;;;;;;10.69;nan;100980.59;5073058;28;20039;-86
2023/05/24 04:02:20;;;;;;;0.20;0.20;;;;;;;10.73;nan;100973.25;5070505;28;20486;-85
2023/05/24 04:04:45;;;;;;;0.30;0.30;;;;;;;10.71;nan;100977.81;5068121;28;20045;-86
2023/05/24 04:07:12;;;;;;;0.20;0.20;;;;;;;10.69;nan;100972.66;5069709;28;20041;-85
2023/05/24 04:09:38;;;;;;;0.20;0.20;;;;;;;10.52;nan;100966.28;5072496;28;20033;-86
2023/05/24 04:12:03;;;;;;;0.20;0.20;;;;;;;10.55;nan;100976.56;5073021;28;20120;-85
2023/05/24 04:14:29;;;;;;;0.20;0.20;;;;;;;10.55;nan;100979.22;5054998;28;20033;-86
2023/05/24 04:16:54;;;;;;;0.22;0.22;;;;;;;10.52;nan;100986.63;5051215;28;20044;-85
2023/05/24 04:19:20;;;;;;;0.20;0.20;;;;;;;10.48;nan;100988.69;5084823;28;20120;-85
2023/05/24 04:21:45;;;;;;;0.20;0.20;;;;;;;10.52;nan;100998.03;5052746;28;20041;-86
2023/05/24 04:24:10;;;;;;;0.20;0.20;;;;;;;10.55;nan;100987.16;5065070;28;20070;-85
2023/05/24 04:26:36;;;;;;;0.20;0.20;;;;;;;10.47;nan;100994.13;5052683;28;20025;-85
2023/05/24 04:29:02;;;;;;;0.20;0.20;;;;;;;10.38;nan;100988.69;5054848;28;20037;-84
2023/05/24 04:31:29;;;;;;;0.30;0.30;;;;;;;10.37;nan;100989.69;5069854;28;20041;-84
2023/05/24 04:33:57;;;;;;;0.20;0.20;;;;;;;10.33;nan;100988.28;5066282;28;20077;-84
2023/05/24 04:36:24;;;;;;;0.20;0.20;;;;;;;10.32;nan;100991.91;5069653;28;20517;-85
2023/05/24 04:38:52;;;;;;;0.20;0.20;;;;;;;10.30;nan;100995.66;5068653;28;20041;-85
2023/05/24 04:41:18;;;;;;;0.20;0.20;;;;;;;10.25;nan;100993.41;5067261;28;20450;-85
2023/05/24 04:43:43;;;;;;;0.20;0.20;;;;;;;10.28;nan;100994.94;5060595;28;20036;-84
2023/05/24 04:46:09;;;;;;;0.20;0.20;;;;;;;10.29;nan;100996.63;5065828;28;20040;-84
2023/05/24 04:48:34;;;;;;;0.20;0.20;;;;;;;10.26;nan;100989.78;5075142;28;20032;-84
2023/05/24 04:51:00;;;;;;;0.20;0.20;;;;;;;10.30;nan;101003.59;5089697;28;20134;-85
2023/05/24 04:53:25;;;;;;;0.20;0.20;;;;;;;10.34;nan;100999.69;5094597;28;20661;-85
2023/05/24 04:55:51;;;;;;;0.30;0.30;;;;;;;10.37;nan;100999.44;5065383;28;20047;-86
2023/05/24 04:58:17;;;;;;;0.20;0.20;;;;;;;10.40;nan;101005.25;5053558;28;20032;-86
2023/05/24 05:00:43;;;;;;;0.20;0.20;;;;;;;10.44;nan;101007.59;5052368;28;20028;-84
2023/05/24 05:03:09;;;;;;;0.20;0.20;;;;;;;10.49;nan;101010.69;5034236;28;20034;-84
2023/05/24 05:05:35;;;;;;;0.20;0.20;;;;;;;10.51;nan;101017.50;4989029;28;20034;-85
2023/05/24 05:08:01;;;;;;;0.20;0.20;;;;;;;10.56;nan;101014.47;4987618;28;20057;-85
2023/05/24 05:10:26;;;;;;;0.20;0.20;;;;;;;10.66;nan;101004.69;5004877;28;20041;-84
2023/05/24 05:12:52;;;;;;;0.22;0.22;;;;;;;10.76;nan;101009.97;5033581;28;20065;-85
2023/05/24 05:15:22;;;;;;;0.20;0.20;;;;;;;10.78;nan;101008.84;4969822;28;20027;-85
2023/05/24 05:17:47;;;;;;;0.20;0.20;;;;;;;10.88;nan;101013.31;5045623;28;20086;-84
2023/05/24 05:20:13;;;;;;;0.20;0.20;;;;;;;10.95;nan;101017.88;5052129;28;20037;-85
2023/05/24 05:22:38;;;;;;;0.20;0.20;;;;;;;10.99;nan;101016.63;5055105;28;20489;-84
2023/05/24 05:25:04;;;;;;;0.20;0.20;;;;;;;11.08;nan;101022.03;5072613;28;20286;-85
2023/05/24 05:27:29;;;;;;;0.20;0.20;;;;;;;11.16;nan;101014.22;5072185;28;20059;-85
2023/05/24 05:29:54;;;;;;;0.20;0.20;;;;;;;11.28;nan;101015.72;5064272;28;20051;-86
2023/05/24 05:32:20;;;;;;;0.20;0.20;;;;;;;11.50;nan;101014.50;5066492;28;21626;-84
2023/05/24 05:34:45;;;;;;;0.20;0.20;;;;;;;11.59;nan;101023.41;5058746;28;20037;-86
2023/05/24 05:37:11;;;;;;;0.20;0.20;;;;;;;11.73;nan;101027.38;5060551;28;20029;-85
2023/05/24 05:39:36;;;;;;;0.20;0.20;;;;;;;11.93;nan;101028.97;5060253;28;20037;-84
2023/05/24 05:42:01;;;;;;;0.20;0.20;;;;;;;12.02;nan;101028.09;5066174;28;20035;-85
2023/05/24 05:44:27;;;;;;;0.20;0.20;;;;;;;12.07;nan;101035.59;5068400;28;20269;-85
2023/05/24 05:46:53;;;;;;;0.20;0.20;;;;;;;11.95;nan;101027.00;5051866;28;20105;-85
2023/05/24 05:49:18;;;;;;;0.20;0.20;;;;;;;11.96;nan;101033.13;5058926;28;20048;-84
2023/05/24 05:51:44;;;;;;;0.20;0.20;;;;;;;12.00;nan;101030.06;5065977;28;20442;-85
2023/05/24 05:54:14;;;;;;;0.10;0.10;;;;;;;12.10;nan;101032.63;5062774;28;20039;-85
2023/05/24 05:56:44;;;;;;;0.20;0.20;;;;;;;12.14;nan;101039.31;5058319;28;20040;-86
2023/05/24 05:59:10;;;;;;;0.20;0.20;;;;;;;12.56;nan;101028.13;5062467;28;20046;-85
2023/05/24 06:01:35;;;;;;;0.15;0.15;;;;;;;13.08;nan;101024.69;5065401;28;20194;-86
2023/05/24 06:04:01;;;;;;;0.20;0.20;;;;;;;13.60;nan;101028.16;5064316;28;20183;-85
2023/05/24 06:06:26;;;;;;;0.10;0.10;;;;;;;13.80;nan;101028.78;5063304;28;20275;-86
2023/05/24 06:08:51;;;;;;;0.10;0.10;;;;;;;13.80;nan;101042.06;5071293;28;20116;-86
2023/05/24 06:11:16;;;;;;;0.15;0.15;;;;;;;13.66;nan;101033.84;5069992;28;20127;-86
2023/05/24 06:13:42;;;;;;;0.10;0.10;;;;;;;13.65;nan;101033.00;5060198;28;20036;-86
2023/05/24 06:16:07;;;;;;;0.10;0.10;;;;;;;13.85;nan;101041.59;5061292;28;20054;-87
2023/05/24 06:18:33;;;;;;;0.20;0.20;;;;;;;14.15;nan;101034.84;5069319;28;20263;-86
2023/05/24 06:20:58;;;;;;;0.20;0.20;;;;;;;14.33;nan;101042.72;5069941;28;20040;-87
2023/05/24 06:23:23;;;;;;;0.10;0.10;;;;;;;14.33;nan;101044.53;5051704;28;20283;-86
2023/05/24 06:25:49;;;;;;;0.10;0.10;;;;;;;14.47;nan;101041.25;5047995;28;20490;-86
2023/05/24 06:28:14;;;;;;;0.10;0.10;;;;;;;14.57;nan;101035.78;5051986;28;20275;-85
2023/05/24 06:30:40;;;;;;;0.17;0.17;;;;;;;14.84;nan;101040.75;5049586;28;20121;-87
2023/05/24 06:33:05;;;;;;;0.10;0.10;;;;;;;14.85;nan;101044.28;5049410;28;20056;-86
2023/05/24 06:35:30;;;;;;;0.10;0.10;;;;;;;14.99;nan;101040.09;5053223;28;20047;-85
2023/05/24 06:37:56;;;;;;;0.10;0.10;;;;;;;15.16;nan;101041.75;5050030;28;20283;-86
2023/05/24 06:40:22;;;;;;;0.10;0.10;;;;;;;15.47;nan;101036.50;5047924;28;20860;-86
2023/05/24 06:42:47;;;;;;;0.10;0.10;;;;;;;15.59;nan;101041.44;5048892;28;20120;-86
2023/05/24 06:45:12;;;;;;;0.10;0.10;;;;;;;16.00;nan;101044.81;5047893;28;20118;-86
2023/05/24 06:47:37;;;;;;;0.10;0.10;;;;;;;16.51;nan;101049.69;5048108;28;20299;-86
2023/05/24 06:50:03;;;;;;;0.10;0.10;;;;;;;16.83;nan;101042.44;5048157;28;20101;-83
2023/05/24 06:52:29;;;;;;;0.10;0.10;;;;;;;17.25;nan;101047.22;5047558;28;20798;-86
2023/05/24 06:54:54;;;;;;;0.00;0.00;;;;;;;17.57;nan;101048.72;5055484;28;20397;-86
2023/05/24 06:57:20;;;;;;;0.00;0.00;;;;;;;17.94;nan;101054.16;5068052;28;20415;-86
2023/05/24 06:59:45;;;;;;;0.00;0.00;;;;;;;17.94;nan;101044.28;5068466;28;20388;-86
2023/05/24 07:02:10;;;;;;;0.00;0.00;;;;;;;18.23;nan;101053.25;5053448;28;20420;-86
2023/05/24 07:04:36;;;;;;;0.00;0.00;;;;;;;18.75;nan;101041.41;5047332;28;20599;-85
2023/05/24 07:07:01;;;;;;;0.00;0.00;;;;;;;19.00;nan;101049.91;5047810;28;20826;-85
2023/05/24 07:09:27;;;;;;;0.00;0.00;;;;;;;18.61;nan;101051.16;5060491;28;20396;-86
2023/05/24 07:11:52;;;;;;;0.00;0.00;;;;;;;18.92;nan;101051.88;5086147;28;20418;-85
2023/05/24 07:14:17;;;;;;;0.00;0.00;;;;;;;18.82;nan;101058.38;5087498;28;20394;-86
2023/05/24 07:16:43;;;;;;;0.00;0.00;;;;;;;19.20;nan;101054.56;5086893;28;20412;-86
2023/05/24 07:19:08;;;;;;;0.00;0.00;;;;;;;19.10;nan;101054.91;5086564;28;20763;-86
2023/05/24 07:21:34;;;;;;;0.00;0.00;;;;;;;19.41;nan;101056.38;5088500;28;20519;-85
2023/05/24 07:23:59;;;;;;;0.00;0.00;;;;;;;19.42;nan;101056.16;5088847;28;20409;-85
2023/05/24 07:26:25;;;;;;;0.00;0.00;;;;;;;19.68;nan;101052.81;5087715;28;20875;-86
2023/05/24 07:28:50;;;;;;;0.00;0.00;;;;;;;20.10;nan;101061.66;5083465;28;20486;-86
2023/05/24 07:31:16;;;;;;;0.00;0.00;;;;;;;20.25;nan;101058.81;5070038;28;20419;-85
2023/05/24 07:33:42;;;;;;;0.00;0.00;;;;;;;20.33;nan;101057.78;5071148;28;20473;-87
2023/05/24 07:36:07;;;;;;;0.00;0.00;;;;;;;20.65;nan;101053.56;5068464;28;20530;-85
2023/05/24 07:38:33;;;;;;;0.00;0.00;;;;;;;20.83;nan;101044.84;5067692;28;20263;-85
2023/05/24 07:41:00;;;;;;;0.00;0.00;;;;;;;20.95;nan;101055.81;5067641;28;20393;-84
2023/05/24 07:43:26;;;;;;;0.00;0.00;;;;;;;21.07;nan;101047.94;5071881;28;20370;-84
2023/05/24 07:45:51;;;;;;;0.00;0.00;;;;;;;21.00;nan;101048.81;5065251;28;20025;-83
2023/05/24 07:48:18;;;;;;;0.00;0.00;;;;;;;20.07;nan;101055.84;5077220;28;20443;-83
2023/05/24 07:50:47;;;;;;;0.00;0.00;;;;;;;20.06;nan;101049.66;5114160;28;20029;-85
2023/05/24 07:53:13;;;;;;;0.00;0.00;;;;;;;20.34;nan;101052.22;5099534;28;20413;-87
2023/05/24 07:55:39;;;;;;;0.00;0.00;;;;;;;20.49;nan;101054.72;5098065;28;20032;-83
2023/05/24 07:58:04;;;;;;;;;;;;;;;20.50;nan;101048.34;5076942;28;20378;-84
2023/05/24 08:00:29;;;;;;;;;;;;;;;19.84;nan;101057.03;5078336;28;19913;-85
2023/05/24 08:02:55;;;;;;;0.00;0.00;;;;;;;20.17;nan;101047.44;5058748;28;19979;-85
2023/05/24 08:05:20;;;;;;;;;;;;;;;19.49;nan;101048.13;5053383;28;20029;-85
2023/05/24 08:07:46;;;;;;;;;;;;;;;19.83;nan;101049.16;5053056;28;19971;-85
2023/05/24 08:10:12;;;;;;;0.10;0.10;;;;;;;20.21;nan;101048.69;5086308;28;19959;-84
2023/05/24 08:12:37;;;;;;;0.00;0.00;;;;;;;19.93;nan;101055.00;4997360;28;20103;-84
2023/05/24 08:15:04;;;;;;;0.00;0.00;;;;;;;19.80;nan;101045.03;5052135;28;20043;-83
2023/05/24 08:17:30;;;;;;;0.00;0.00;;;;;;;19.73;nan;101049.53;5051685;28;20406;-84
2023/05/24 08:19:55;;;;;;;0.00;0.00;;;;;;;19.95;nan;101055.63;5065161;28;20044;-84
2023/05/24 08:22:21;;;;;;;0.10;0.10;;;;;;;19.60;nan;101046.78;5051994;28;20032;-85
2023/05/24 08:24:46;;;;;;;0.03;0.03;;;;;;;19.96;nan;101059.16;5052864;28;20548;-83
2023/05/24 08:27:12;;;;;;;;;;;;;;;20.23;nan;101057.38;5053074;28;20037;-84
2023/05/24 08:29:38;;;;;;;0.00;0.00;;;;;;;20.19;nan;101056.97;5052133;28;19919;-85
2023/05/24 08:32:08;;;;;;;0.03;0.03;;;;;;;20.64;nan;101061.81;5050722;28;20557;-85
2023/05/24 08:34:35;;;;;;;0.10;0.10;;;;;;;21.36;nan;101054.75;5051394;28;20029;-85
2023/05/24 08:37:01;;;;;;;0.00;0.00;;;;;;;21.34;nan;101054.97;5050844;28;20033;-84
2023/05/24 08:39:26;;;;;;;;;;;;;;;21.33;nan;101065.91;5051048;28;20102;-85
2023/05/24 08:41:51;;;;;;;0.00;0.00;;;;;;;20.67;nan;101061.41;5050831;28;19921;-84
2023/05/24 08:44:17;;;;;;;0.00;0.00;;;;;;;20.81;nan;101068.47;5049136;28;20406;-84
2023/05/24 08:46:42;;;;;;;0.00;0.00;;;;;;;20.31;nan;101065.25;5052309;28;20482;-85
2023/05/24 08:49:11;;;;;;;0.00;0.00;;;;;;;20.35;nan;101056.59;5073793;28;20051;-85
2023/05/24 08:51:37;;;;;;;0.00;0.00;;;;;;;20.40;nan;101061.31;5089060;28;20085;-85
2023/05/24 08:54:04;;;;;;;0.00;0.00;;;;;;;20.37;nan;101064.41;5106100;28;20040;-85
2023/05/24 08:56:30;;;;;;;0.00;0.00;;;;;;;20.48;nan;101060.31;5068810;28;20075;-85
2023/05/24 08:58:55;;;;;;;0.10;0.10;;;;;;;20.10;nan;101053.63;5060758;28;20033;-85
2023/05/24 09:01:22;;;;;;;;;;;;;;;20.28;nan;101058.41;5072253;28;20533;-85
2023/05/24 09:03:49;;;;;;;;;;;;;;;20.83;nan;101057.47;5069592;28;19916;-84
2023/05/24 09:06:15;;;;;;;;;;;;;;;20.98;nan;101061.63;5071580;28;20285;-85
2023/05/24 09:08:41;;;;;;;0.10;0.10;;;;;;;22.15;nan;101064.44;5071339;28;19939;-85
2023/05/24 09:11:07;;;;;;;0.00;0.00;;;;;;;22.00;nan;101059.34;5088234;28;20453;-85
2023/05/24 09:13:33;;;;;;;0.00;0.00;;;;;;;22.36;nan;101059.81;5090606;28;20036;-85
2023/05/24 09:16:00;;;;;;;0.00;0.00;;;;;;;22.64;nan;101070.16;5091320;28;20039;-85
2023/05/24 09:18:25;;;;;;;0.00;0.00;;;;;;;22.59;nan;101053.84;5090757;28;20028;-85
2023/05/24 09:20:50;;;;;;;0.10;0.10;;;;;;;22.22;nan;101062.56;5107375;28;20073;-86
2023/05/24 09:23:16;;;;;;;0.10;0.10;;;;;;;22.03;nan;101050.81;5051044;28;20049;-87
2023/05/24 09:25:43;;;;;;;0.10;0.10;;;;;;;22.55;nan;101058.00;5049522;28;20037;-86
2023/05/24 09:28:13;;;;;;;0.00;0.00;;;;;;;23.11;nan;101054.47;5050420;28;20086;-86
2023/05/24 09:30:41;;;;;;;0.00;0.00;;;;;;;22.87;nan;101054.22;5057613;28;20039;-88
2023/05/24 09:33:07;;;;;;;;;;;;;;;23.29;nan;101048.28;5074136;28;20464;-87
2023/05/24 09:35:32;;;;;;;0.00;0.00;;;;;;;23.64;nan;101055.78;5071260;28;19950;-85
2023/05/24 09:37:58;;;;;;;0.00;0.00;;;;;;;23.59;nan;101053.75;5071480;28;20037;-86
2023/05/24 09:40:25;;;;;;;0.00;0.00;;;;;;;23.63;nan;101043.34;5069478;28;20056;-86
2023/05/24 09:43:02;;;;;;;0.00;0.00;;;;;;;24.41;nan;101056.06;5068958;28;20439;-86
2023/05/24 09:45:27;;;;;;;0.00;0.00;;;;;;;25.02;nan;101054.88;5067497;28;20762;-87
2023/05/24 09:47:53;;;;;;;0.00;0.00;;;;;;;24.20;nan;101043.06;5063462;28;20407;-85
2023/05/24 09:50:18;;;;;;;0.00;0.00;;;;;;;24.50;nan;101049.31;5103932;28;20770;-86
2023/05/24 09:52:44;;;;;;;0.00;0.00;;;;;;;23.35;nan;101036.59;5090311;28;20093;-85
2023/05/24 09:55:17;;;;;;;0.00;0.00;;;;;;;21.72;nan;100925.06;5089669;28;20362;-85
2023/05/24 09:58:01;;;;;;;0.00;0.00;;;;;;;;;;5077241;28;20114;-85
2023/05/24 10:00:27;;;;;;;0.00;0.00;;;;;;;;;;5050635;28;20032;-84
2023/05/24 10:03:02;;;;;;;;;;;;;;;19.21;nan;100895.34;5051762;28;20051;-85
2023/05/24 10:05:27;;;;;;;;;;;;;;;18.93;nan;100877.50;5050364;28;20390;-84
2023/05/24 10:07:53;;;;;;;;;;;;;;;18.98;nan;100885.78;5048973;28;19923;-85
2023/05/24 10:10:19;;;;;;;;;;;;;;;19.47;nan;100902.66;5062695;28;20339;-85
2023/05/24 10:12:45;;;;;;;;;;;;;;;19.64;nan;100889.72;5068897;28;19920;-86
2023/05/24 10:15:11;;;;;;;;;;;;;;;20.84;nan;100914.81;5069050;28;19958;-85
2023/05/24 10:17:36;;;;;;;;;;;;;;;21.26;nan;100931.47;5054276;28;19917;-84
2023/05/24 10:20:03;;;;;;;;;;;;;;;21.94;nan;100930.13;5050338;28;19912;-85
2023/05/24 10:22:29;;;;;;;;;;;;;;;22.09;nan;101059.91;4950692;28;19915;-85
2023/05/24 10:24:58;;;;;;;;;;;;;;;23.06;nan;101060.53;4968684;28;20283;-86
2023/05/24 10:27:25;;;;;;;;;;;;;;;23.80;nan;100936.38;4968896;28;19925;-86
2023/05/24 10:30:00;;;;;;;;;;;;;;;24.05;nan;100905.69;4968842;28;20376;-85
2023/05/24 10:32:30;;;;;;;;;;;;;;;24.14;nan;100925.91;4966978;28;19918;-86
2023/05/24 10:34:56;;;;;;;0.10;0.10;;;;;;;;;;4968204;28;20288;-86
2023/05/24 10:37:23;;;;;;;0.10;0.10;;;;;;;;;;4968139;28;20031;-85
2023/05/24 10:39:48;;;;;;;0.00;0.00;;;;;;;;;;4966900;28;20430;-85
2023/05/24 10:42:14;;;;;;;0.00;0.00;;;;;;;;;;4965378;28;20491;-85
2023/05/24 10:44:39;;;;;;;0.00;0.00;;;;;;;;;;4972536;28;20049;-85
2023/05/24 10:47:10;;;;;;;0.00;0.00;;;;;;;;;;4985967;28;20752;-86
2023/05/24 10:49:36;;;;;;;0.00;0.00;;;;;;;24.54;nan;100909.06;4997934;28;20401;-84
2023/05/24 10:52:11;;;;;;;;;;;;;;;24.92;nan;100926.69;4985964;28;20285;-84
2023/05/24 10:54:37;;;;;;;;;;;;;;;24.77;nan;100925.28;5084281;28;19966;-85
2023/05/24 10:57:03;;;;;;;0.00;0.00;;;;;;;;;;5054953;28;20624;-85
2023/05/24 10:59:39;;;;;;;0.00;0.00;;;;;;;25.95;nan;100919.53;5049004;28;20037;-84
2023/05/24 11:02:15;;;;;;;0.00;0.00;;;;;;;;;;5065718;28;20040;-84
2023/05/24 11:04:47;;;;;;;;;;;;;;;25.51;nan;100923.88;4985769;28;20030;-84
2023/05/24 11:07:14;;;;;;;;;;;;;;;24.89;nan;100917.16;4985894;28;20432;-84
2023/05/24 11:09:45;;;;;;;;;;;;;;;25.35;nan;100909.19;4993017;28;19988;-84
2023/05/24 11:12:16;;;;;;;;;;;;;;;25.07;nan;100908.06;5021984;28;19977;-84
2023/05/24 11:14:46;;;;;;;;;;;;;;;24.77;nan;100913.66;5022312;28;20393;-84
2023/05/24 11:17:11;;;;;;;;;;;;;;;25.59;nan;100899.91;5014632;28;19924;-84
2023/05/24 11:19:38;;;;;;;;;;;;;;;26.02;nan;100909.38;4992672;28;19918;-83
2023/05/24 11:22:05;;;;;;;0.00;0.00;;;;;;;;;;4987817;28;19992;-86
2023/05/24 11:24:31;;;;;;;0.00;0.00;;;;;;;;;;4968608;28;20058;-83
2023/05/24 11:26:58;;;;;;;0.00;0.00;;;;;;;26.44;nan;100944.22;4969765;28;20046;-83
2023/05/24 11:29:23;;;;;;;0.00;0.00;;;;;;;;;;4970618;28;20039;-82
2023/05/24 11:31:51;;;;;;;0.00;0.00;;;;;;;25.33;nan;100919.44;4955641;28;20089;-83
2023/05/24 11:34:17;;;;;;;0.00;0.00;;;;;;;25.77;nan;100863.69;4947717;28;20042;-83
2023/05/24 11:36:43;;;;;;;0.00;0.00;;;;;;;25.89;nan;100936.78;4947667;28;20516;-84
2023/05/24 11:39:09;;;;;;;0.00;0.00;;;;;;;26.85;nan;100927.75;4951026;28;20377;-83
2023/05/24 11:41:38;;;;;;;0.00;0.00;;;;;;;26.94;nan;101004.94;4959258;28;20135;-83
2023/05/24 11:44:03;;;;;;;0.00;0.00;;;;;;;27.10;nan;100995.13;4951496;28;20058;-84
2023/05/24 11:46:30;;;;;;;0.00;0.00;;;;;;;26.60;nan;100994.13;5011005;28;20050;-84
2023/05/24 11:48:56;;;;;;;0.00;0.00;;;;;;;25.64;nan;100929.78;4995333;28;20091;-84
2023/05/24 11:51:32;;;;;;;0.00;0.00;;;;;;;26.59;nan;100859.56;5004335;28;20045;-84
2023/05/24 11:53:58;;;;;;;0.00;0.00;;;;;;;27.64;nan;100997.19;4982697;28;20039;-84